If you wish to contribute or participate in the discussions about articles you are invited to join SKYbrary as a registered user

 Actions

Iramshahr Airport

From SKYbrary Wiki

OIZI
Airport
ICAO: OIZI – IATA: IHR
Summary
Name Iramshahr Airport
Region Middle East
Territory Iran IR.gif
Location Sarzeh, Sistan and Baluchistan Province
Serving Iramshahr
Elevation 621.792 m
2,040 ft621.792 m
Coordinates 27° 13' 42.99" N, 60° 43' 6.30" E
Runways
Designator Length Width Surface ROPS
17/35 2350 m7,709.974 ft
46 m150.919 ft
ASP /


METAR
Observation OIZI 111000Z 30006KT 9999 SCT040TCU SCT200 32/10 Q1011
Station Iranshahr
Date/Time 11 April 2019 10:00:00
Wind direction 300°
Wind speed 06 kts
Lowest cloud amount scattered clouds
Temperature 32°C
Dew point 10°C
Humidity 25%
QNH 1011 hPa
Weather condition n/a

Airport serving Iranshahr, Iran.

Climatology

Hot Desert climate (Köppen climate classification BWh).

Maps

Terrain

Loading map...

Airport Layout

Loading map...


Accidents & Serious Incidents at or in vicinity of OIZI

None on SKYbrary